Time;durP1;ratioP1;P1;durP2;ratioP2;P2;SDS_P1;SDS_P2;PMS_P1;PMS_P2;Temp;Humidity;BMP_temperature;BMP_pressure;BME280_temperature;BME280_humidity;BME280_pressure;Samples;Min_cycle;Max_cycle;Signal;HPM_P1;HPM_P2
2021/12/01 00:01:39;;;;;;;39.03;31.67;;;;;;;;;;5029832;28;20528;-64
2021/12/01 00:04:05;;;;;;;43.67;29.88;;;;;;;;;;5030298;28;20025;-64
2021/12/01 00:06:31;;;;;;;41.08;31.17;;;;;;;;;;5028628;28;20037;-64
2021/12/01 00:08:57;;;;;;;33.65;26.30;;;;;;;;;;5029863;28;20710;-64
2021/12/01 00:11:23;;;;;;;40.05;30.02;;;;;;;;;;5029502;28;20092;-64
2021/12/01 00:13:49;;;;;;;41.00;30.30;;;;;;;;;;5028287;28;20536;-64
2021/12/01 00:16:15;;;;;;;38.42;27.92;;;;;;;;;;5029779;28;20029;-64
2021/12/01 00:18:41;;;;;;;38.55;27.40;;;;;;;;;;5012155;28;20036;-64
2021/12/01 00:21:07;;;;;;;34.65;22.95;;;;;;;;;;5012783;28;20030;-64
2021/12/01 00:23:33;;;;;;;39.22;26.33;;;;;;;;;;5044161;23;20049;-64
2021/12/01 00:25:59;;;;;;;39.50;26.42;;;;;;;;;;5031753;28;20031;-64
2021/12/01 00:28:25;;;;;;;39.05;27.45;;;;;;;;;;5030385;28;20021;-63
2021/12/01 00:30:52;;;;;;;36.05;28.00;;;;;;;;;;5031671;28;20518;-63
2021/12/01 00:33:21;;;;;;;35.60;27.17;;;;;;;;;;5031328;28;20426;-63
2021/12/01 00:35:47;;;;;;;31.35;23.25;;;;;;;;;;5031579;28;20025;-63
2021/12/01 00:38:13;;;;;;;31.90;24.77;;;;;;;;;;5031667;28;20266;-64
2021/12/01 00:40:40;;;;;;;35.58;23.73;;;;;;;;;;5030296;28;20120;-64
2021/12/01 00:43:06;;;;;;;28.48;21.60;;;;;;;;;;5029799;28;20030;-64
2021/12/01 00:45:33;;;;;;;30.02;21.92;;;;;;;;;;5031397;28;20109;-63
2021/12/01 00:47:59;;;;;;;32.83;22.80;;;;;;;;;;5031603;28;20034;-64
2021/12/01 00:50:27;;;;;;;34.10;24.65;;;;;;;;;;5031509;28;20489;-64
2021/12/01 00:52:54;;;;;;;32.33;24.17;;;;;;;;;;5031232;28;20080;-64
2021/12/01 00:55:20;;;;;;;30.30;23.02;;;;;;;;;;5030224;28;20026;-64
2021/12/01 00:57:46;;;;;;;34.83;24.45;;;;;;;;;;5030155;28;20171;-64
2021/12/01 01:00:15;;;;;;;32.70;24.75;;;;;;;;;;5031676;28;20469;-64
2021/12/01 01:02:44;;;;;;;29.73;23.67;;;;;;;;;;5029708;28;20405;-64
2021/12/01 01:05:10;;;;;;;32.70;24.70;;;;;;;;;;5029962;28;20021;-64
2021/12/01 01:07:36;;;;;;;30.63;24.08;;;;;;;;;;5031317;28;20032;-63
2021/12/01 01:10:25;;;;;;;32.70;24.90;;;;;;;;;;5031188;28;20021;-63
2021/12/01 01:18:22;;;;;;;27.27;22.58;;;;;;;;;;5031415;28;20492;-64
2021/12/01 01:20:48;;;;;;;27.02;22.98;;;;;;;;;;5029928;28;20026;-64
2021/12/01 01:23:14;;;;;;;25.15;21.50;;;;;;;;;;5029192;28;20057;-62
2021/12/01 01:25:40;;;;;;;25.08;21.92;;;;;;;;;;5031143;28;20057;-63
2021/12/01 01:28:06;;;;;;;24.17;20.85;;;;;;;;;;5031069;28;20055;-63
2021/12/01 01:30:33;;;;;;;23.38;19.73;;;;;;;;;;5029712;28;20116;-63
2021/12/01 01:32:59;;;;;;;25.73;21.60;;;;;;;;;;5031580;28;20057;-62
2021/12/01 01:35:26;;;;;;;21.67;16.77;;;;;;;;;;5033630;28;20029;-63
2021/12/01 01:37:52;;;;;;;23.13;18.58;;;;;;;;;;5033663;28;20033;-63
2021/12/01 01:40:18;;;;;;;25.80;18.65;;;;;;;;;;5034788;28;20410;-63
2021/12/01 01:42:44;;;;;;;24.13;18.35;;;;;;;;;;5034272;28;20148;-63
2021/12/01 01:45:11;;;;;;;25.92;19.17;;;;;;;;;;5033424;28;20397;-63
2021/12/01 01:47:46;;;;;;;25.10;16.73;;;;;;;;;;5034683;28;20049;-63
2021/12/01 01:50:58;;;;;;;20.30;12.50;;;;;;;;;;5034595;28;20022;-62
2021/12/01 01:52:58;;;;;;;25.35;14.80;;;;;;;;;;5030094;28;20029;-62
2021/12/01 01:55:24;;;;;;;22.98;14.88;;;;;;;;;;5033196;28;20489;-63
2021/12/01 01:57:53;;;;;;;19.80;11.75;;;;;;;;;;5033191;28;20019;-63
2021/12/01 02:00:19;;;;;;;21.40;12.68;;;;;;;;;;5033109;28;20069;-63
2021/12/01 02:02:46;;;;;;;19.92;12.10;;;;;;;;;;5033875;28;20040;-63
2021/12/01 02:05:12;;;;;;;21.02;12.38;;;;;;;;;;5034271;28;20453;-63
2021/12/01 02:07:38;;;;;;;20.35;12.35;;;;;;;;;;5034179;28;20028;-63
2021/12/01 02:10:04;;;;;;;19.73;11.50;;;;;;;;;;5032893;28;20032;-63
2021/12/01 02:12:30;;;;;;;19.02;11.55;;;;;;;;;;5032375;28;20038;-63
2021/12/01 02:14:56;;;;;;;19.35;12.27;;;;;;;;;;5034008;28;20084;-63
2021/12/01 02:17:22;;;;;;;20.42;10.23;;;;;;;;;;5034055;28;20418;-63
2021/12/01 02:19:52;;;;;;;17.83;11.02;;;;;;;;;;5032715;28;20037;-63
2021/12/01 02:22:18;;;;;;;18.50;11.98;;;;;;;;;;5032518;28;20415;-63
2021/12/01 02:24:47;;;;;;;20.80;12.35;;;;;;;;;;5033718;28;20033;-62
2021/12/01 02:27:14;;;;;;;19.23;13.80;;;;;;;;;;5032563;28;20178;-63
2021/12/01 02:29:40;;;;;;;17.95;12.68;;;;;;;;;;5033731;28;20056;-63
2021/12/01 02:32:06;;;;;;;19.77;13.75;;;;;;;;;;5032269;28;20458;-63
2021/12/01 02:34:39;;;;;;;18.27;13.40;;;;;;;;;;5032217;28;20097;-63
2021/12/01 02:37:06;;;;;;;18.83;13.43;;;;;;;;;;5033631;28;20029;-63
2021/12/01 02:39:32;;;;;;;19.37;14.00;;;;;;;;;;5033620;28;20021;-64
2021/12/01 02:42:00;;;;;;;19.33;14.80;;;;;;;;;;5033248;28;20025;-64
2021/12/01 02:44:27;;;;;;;21.05;15.40;;;;;;;;;;5032022;28;20618;-63
2021/12/01 02:46:53;;;;;;;19.17;15.30;;;;;;;;;;5033535;28;20022;-64
2021/12/01 02:49:20;;;;;;;20.73;15.90;;;;;;;;;;5032220;28;20124;-63
2021/12/01 02:51:48;;;;;;;19.33;14.05;;;;;;;;;;5031806;28;20063;-63
2021/12/01 02:54:14;;;;;;;18.60;13.45;;;;;;;;;;5033235;28;20029;-64
2021/12/01 02:56:42;;;;;;;18.20;13.98;;;;;;;;;;5032971;28;20508;-63
2021/12/01 02:59:08;;;;;;;26.58;14.10;;;;;;;;;;5033324;28;20022;-64
2021/12/01 03:01:34;;;;;;;18.45;14.20;;;;;;;;;;5033250;28;20038;-63
2021/12/01 03:04:00;;;;;;;19.60;13.73;;;;;;;;;;5033117;28;20032;-64
2021/12/01 03:06:29;;;;;;;20.15;13.75;;;;;;;;;;5033275;28;20350;-63
2021/12/01 03:08:56;;;;;;;20.17;15.15;;;;;;;;;;5031802;28;20394;-63
2021/12/01 03:11:23;;;;;;;19.38;14.63;;;;;;;;;;5033072;28;20496;-64
2021/12/01 03:13:49;;;;;;;18.50;13.82;;;;;;;;;;5032795;28;20082;-65
2021/12/01 03:16:15;;;;;;;18.23;13.73;;;;;;;;;;5031562;28;20033;-63
2021/12/01 03:18:43;;;;;;;17.90;13.98;;;;;;;;;;5032680;28;20037;-64
2021/12/01 03:21:10;;;;;;;18.95;14.50;;;;;;;;;;5032774;28;20049;-64
2021/12/01 03:23:36;;;;;;;19.33;15.70;;;;;;;;;;5032316;28;20389;-64
2021/12/01 03:26:02;;;;;;;18.17;14.30;;;;;;;;;;5031348;28;20021;-64
2021/12/01 03:28:28;;;;;;;17.98;13.48;;;;;;;;;;5032543;28;20025;-63
2021/12/01 03:30:54;;;;;;;17.98;14.13;;;;;;;;;;5032591;28;20030;-63
2021/12/01 03:33:23;;;;;;;16.58;12.85;;;;;;;;;;5032153;28;20063;-63
2021/12/01 03:35:50;;;;;;;16.50;11.60;;;;;;;;;;5032517;28;20026;-64
2021/12/01 03:38:16;;;;;;;18.70;15.00;;;;;;;;;;5032286;28;20095;-63
2021/12/01 03:40:42;;;;;;;17.40;13.40;;;;;;;;;;5030847;28;20132;-64
2021/12/01 03:43:08;;;;;;;18.80;14.68;;;;;;;;;;5030628;28;20033;-64
2021/12/01 03:45:37;;;;;;;17.42;14.07;;;;;;;;;;5030962;28;20567;-64
2021/12/01 03:48:03;;;;;;;18.60;13.65;;;;;;;;;;5031015;28;20029;-64
2021/12/01 03:50:29;;;;;;;18.80;14.85;;;;;;;;;;5032038;28;20045;-63
2021/12/01 03:52:56;;;;;;;18.80;14.52;;;;;;;;;;5031702;28;20027;-64
2021/12/01 03:55:22;;;;;;;19.40;16.20;;;;;;;;;;5032010;28;20085;-64
2021/12/01 03:57:48;;;;;;;19.52;15.38;;;;;;;;;;5032021;28;20026;-64
2021/12/01 04:00:15;;;;;;;18.75;14.32;;;;;;;;;;5030546;28;20444;-63
2021/12/01 04:02:41;;;;;;;19.88;16.30;;;;;;;;;;5030167;28;20485;-63
2021/12/01 04:05:07;;;;;;;17.58;15.20;;;;;;;;;;5031853;28;20097;-63
2021/12/01 04:07:34;;;;;;;18.00;14.48;;;;;;;;;;5031704;28;20312;-64
2021/12/01 04:10:00;;;;;;;17.73;13.27;;;;;;;;;;5030483;28;20057;-63
2021/12/01 04:12:27;;;;;;;17.30;12.40;;;;;;;;;;5031389;28;20044;-62
2021/12/01 04:14:52;;;;;;;17.42;11.65;;;8.50;99.90;;;;;;5031606;28;20018;-63
2021/12/01 04:17:18;;;;;;;17.92;12.50;;;;;;;;;;5030247;28;20473;-63
2021/12/01 04:19:45;;;;;;;17.65;10.70;;;;;;;;;;5031538;28;20030;-63
2021/12/01 04:22:11;;;;;;;16.30;9.85;;;;;;;;;;5031287;28;20021;-63
2021/12/01 04:24:37;;;;;;;16.25;10.25;;;;;;;;;;5031144;28;20386;-64
2021/12/01 04:27:03;;;;;;;16.98;10.35;;;;;;;;;;5031371;28;20093;-63
2021/12/01 04:29:29;;;;;;;16.33;9.60;;;;;;;;;;5031425;28;20036;-64
2021/12/01 04:31:55;;;;;;;15.05;8.60;;;;;;;;;;5031043;28;20021;-63
2021/12/01 04:34:21;;;;;;;16.77;9.15;;;;;;;;;;5030110;28;20033;-65
2021/12/01 04:36:49;;;;;;;16.35;9.65;;;;;;;;;;5031181;28;20025;-63
2021/12/01 04:39:16;;;;;;;18.23;10.23;;;;;;;;;;5031254;28;20021;-63
2021/12/01 04:41:53;;;;;;;16.38;9.20;;;;;;;;;;5031123;28;20021;-63
2021/12/01 04:44:20;;;;;;;16.50;8.52;;;;;;;;;;5031032;28;20044;-63
2021/12/01 04:46:47;;;;;;;16.50;8.10;;;;;;;;;;5029625;28;20025;-63
2021/12/01 04:49:17;;;;;;;15.80;7.93;;;;;;;;;;5030006;28;20022;-63
2021/12/01 04:51:45;;;;;;;17.40;8.65;;;;;;;;;;5029709;28;20022;-64
2021/12/01 04:54:11;;;;;;;15.73;7.25;;;;;;;;;;5031081;28;20477;-63
2021/12/01 04:56:37;;;;;;;15.30;8.10;;;;;;;;;;5030988;28;20114;-63
2021/12/01 04:59:07;;;;;;;15.85;7.50;;;;;;;;;;5031095;28;20742;-63
2021/12/01 05:01:36;;;;;;;16.50;8.10;;;;;;;;;;5030897;28;20531;-64
2021/12/01 05:04:02;;;;;;;14.90;6.70;;;;;;;;;;5030677;28;20114;-64
2021/12/01 05:06:29;;;;;;;15.88;7.43;;;;;;;;;;5029608;28;20028;-64
2021/12/01 05:08:55;;;;;;;15.95;7.60;;;;;;;;;;5033229;28;20025;-63
2021/12/01 05:11:21;;;;;;;15.80;7.53;;;;;;;;;;5034886;28;20033;-63
2021/12/01 05:13:47;;;;;;;16.67;7.72;;;;;;;;;;5034177;28;20504;-64
2021/12/01 05:16:13;;;;;;;17.42;8.32;;;;;;;;;;5033682;28;20029;-64
2021/12/01 05:18:39;;;;;;;17.13;8.35;;;;;;;;;;5033552;28;20021;-63
2021/12/01 05:21:05;;;;;;;16.40;8.30;;;;;;;;;;5034785;28;20076;-64
2021/12/01 05:23:32;;;;;;;15.45;6.88;;;;;;;;;;5034087;28;20038;-64
2021/12/01 05:25:58;;;;;;;15.50;6.80;;;;;;;;;;5035386;28;20034;-64
2021/12/01 05:28:24;;;;;;;14.55;6.30;;;;;;;;;;5033429;28;20025;-62
2021/12/01 05:30:50;;;;;;;14.57;6.93;;;;;;;;;;5034349;28;20438;-64
2021/12/01 05:33:16;;;;;;;16.67;6.60;;;;;;;;;;5034201;28;20032;-64
2021/12/01 05:35:43;;;;;;;15.18;6.55;;;;;;;;;;5034539;28;20021;-64
2021/12/01 05:38:09;;;;;;;14.80;6.45;;;;;;;;;;5033125;28;20025;-64
2021/12/01 05:40:35;;;;;;;14.30;5.82;;;;;;;;;;5034478;28;20563;-64
2021/12/01 05:43:01;;;;;;;16.00;6.82;;;;;;;;;;5033978;28;20147;-64
2021/12/01 05:45:27;;;;;;;15.07;6.32;;;;;;;;;;5034394;28;20033;-64
2021/12/01 05:47:53;;;;;;;16.88;7.72;;;;;;;;;;5034418;28;20834;-64
2021/12/01 05:50:19;;;;;;;17.30;7.03;;;;;;;;;;5034211;28;20021;-64
2021/12/01 05:52:45;;;;;;;18.02;6.93;;;;;;;;;;5033954;28;20456;-63
2021/12/01 05:55:11;;;;;;;16.25;7.05;;;;;;;;;;5032992;28;20194;-64
2021/12/01 05:57:37;;;;;;;15.75;6.88;;;;;;;;;;5031722;28;20497;-64
2021/12/01 06:00:05;;;;;;;14.23;6.00;;;;;;;;;;5034150;28;20029;-63
2021/12/01 06:02:31;;;;;;;13.83;5.93;;;;;;;;;;5034050;28;20400;-63
2021/12/01 06:04:59;;;;;;;14.65;5.70;;;;;;;;;;5032831;28;20371;-64
2021/12/01 06:07:25;;;;;;;15.88;6.80;;;;;;;;;;5034275;28;20028;-64
2021/12/01 06:09:52;;;;;;;15.63;6.13;;;;;;;;;;5033978;28;20017;-63
2021/12/01 06:12:18;;;;;;;13.65;6.03;;;;;;;;;;5048800;28;20021;-62
2021/12/01 06:14:44;;;;;;;14.85;5.85;;;;;;;;;;5060826;28;20037;-62
2021/12/01 06:17:11;;;;;;;15.57;6.22;;;;;;;;;;5033817;28;20147;-64
2021/12/01 06:19:38;;;;;;;13.90;5.32;;;;;;;;;;5033624;28;20026;-63
2021/12/01 06:22:04;;;;;;;15.73;5.90;;;;;;;;;;5033181;28;20045;-63
2021/12/01 06:24:30;;;;;;;14.75;5.50;;;;;;;;;;5074894;22;20051;-65
2021/12/01 06:26:56;;;;;;;15.15;6.03;;;;;;;;;;5074744;28;20025;-65
2021/12/01 06:29:22;;;;;;;12.27;5.28;;;;;;;;;;5073600;28;20043;-65
2021/12/01 06:31:49;;;;;;;14.63;6.03;;;;;;;;;;5072106;28;20024;-64
2021/12/01 06:34:15;;;;;;;13.25;5.63;;;;;;;;;;5064420;28;20029;-64
2021/12/01 06:36:41;;;;;;;13.75;5.90;;;;;;;;;;5052606;28;20392;-64
2021/12/01 06:39:07;;;;;;;16.83;5.75;;;;;;;;;;5052485;28;20036;-64
2021/12/01 06:41:33;;;;;;;15.13;6.70;;;;;;;;;;5052215;28;20035;-64
2021/12/01 06:44:00;;;;;;;15.43;6.47;;;8.60;99.90;;;;;;5052075;28;20112;-64
2021/12/01 06:46:26;;;;;;;15.10;8.38;;;8.10;99.90;;;;;;5052670;28;20052;-65
2021/12/01 06:48:52;;;;;;;15.32;7.55;;;8.00;99.90;;;;;;5053965;28;20112;-64
2021/12/01 06:51:18;;;;;;;15.18;8.05;;;7.90;99.90;;;;;;5054063;28;20049;-64
2021/12/01 06:53:44;;;;;;;15.38;8.20;;;7.90;99.90;;;;;;5051799;28;20037;-64
2021/12/01 06:56:10;;;;;;;14.90;8.15;;;;;;;;;;5052416;28;20079;-64
2021/12/01 06:58:37;;;;;;;17.63;9.00;;;;;;;;;;5053534;28;20036;-65
2021/12/01 07:01:06;;;;;;;15.52;9.02;;;;;;;;;;5053631;28;20056;-64
2021/12/01 07:03:34;;;;;;;15.25;8.52;;;;;;;;;;5051971;28;20024;-64
2021/12/01 07:06:00;;;;;;;16.58;8.10;;;;;;;;;;5053886;28;20032;-64
2021/12/01 07:08:26;;;;;;;18.23;8.95;;;;;;;;;;5052259;28;20064;-64
2021/12/01 07:10:52;;;;;;;14.73;8.30;;;;;;;;;;5053361;28;20092;-63
2021/12/01 07:13:18;;;;;;;16.17;9.23;;;;;;;;;;5051564;28;20025;-63
2021/12/01 07:15:45;;;;;;;15.88;8.68;;;;;;;;;;5051884;28;20436;-65
2021/12/01 07:18:11;;;;;;;16.02;8.75;;;;;;;;;;5051775;28;20056;-64
2021/12/01 07:20:37;;;;;;;16.85;9.23;;;;;;;;;;5053253;28;20067;-64
2021/12/01 07:23:04;;;;;;;15.57;8.85;;;;;;;;;;5052638;28;20029;-66
2021/12/01 07:25:33;;;;;;;15.98;9.77;;;;;;;;;;5051015;28;20025;-64
2021/12/01 07:27:59;;;;;;;18.83;10.88;;;;;;;;;;5051765;28;20044;-64
2021/12/01 07:30:25;;;;;;;18.77;12.65;;;;;;;;;;5051504;28;20021;-64
2021/12/01 07:32:54;;;;;;;18.15;12.93;;;;;;;;;;5052997;28;20032;-65
2021/12/01 07:35:20;;;;;;;18.20;13.40;;;;;;;;;;5053012;28;20044;-62
2021/12/01 07:37:49;;;;;;;19.15;15.88;;;;;;;;;;5053115;28;20021;-63
2021/12/01 07:40:15;;;;;;;17.50;13.55;;;;;;;;;;5052127;28;20020;-63
2021/12/01 07:42:41;;;;;;;18.10;14.15;;;;;;;;;;5053194;28;20147;-64
2021/12/01 07:45:07;;;;;;;20.00;14.48;;;;;;;;;;5051844;28;20067;-65
2021/12/01 07:47:34;;;;;;;19.08;13.40;;;;;;;;;;5053088;28;20021;-64
2021/12/01 07:50:00;;;;;;;17.35;13.70;;;;;;;;;;5053182;28;20021;-64
2021/12/01 07:52:26;;;;;;;16.95;12.73;;;;;;;;;;5052646;28;20071;-64
2021/12/01 07:54:52;;;;;;;27.65;13.07;;;;;;;;;;5052856;28;20025;-65
2021/12/01 07:57:18;;;;;;;18.33;12.98;;;;;;;;;;5052567;28;20491;-64
2021/12/01 07:59:44;;;;;;;18.00;12.27;;;;;;;;;;5052705;28;20025;-64
2021/12/01 08:02:10;;;;;;;18.63;12.90;;;;;;;;;;5051304;28;20075;-64
2021/12/01 08:04:36;;;;;;;16.33;11.43;;;;;;;;;;5051165;28;20436;-65
2021/12/01 08:07:02;;;;;;;19.60;14.35;;;7.90;99.90;;;;;;5051767;28;20366;-65
2021/12/01 08:09:28;;;;;;;17.90;12.57;;;7.50;99.90;;;;;;5052196;28;20021;-64
2021/12/01 08:11:54;;;;;;;21.75;15.10;;;7.50;99.90;;;;;;5050766;28;20100;-65
2021/12/01 08:14:20;;;;;;;18.13;14.23;;;;;;;;;;5052357;28;20025;-64
2021/12/01 08:16:47;;;;;;;17.55;13.65;;;;;;;;;;5051164;28;20076;-64
2021/12/01 08:19:13;;;;;;;18.83;13.98;;;;;;;;;;5051193;28;20025;-65
2021/12/01 08:21:39;;;;;;;17.50;13.73;;;;;;;;;;5052324;28;20032;-65
2021/12/01 08:24:05;;;;;;;17.38;12.95;;;;;;;;;;5050882;28;20029;-65
2021/12/01 08:26:31;;;;;;;19.65;13.50;;;;;;;;;;5051584;28;20149;-61
2021/12/01 08:28:57;;;;;;;18.10;12.70;;;;;;;;;;5050918;28;20028;-65
2021/12/01 08:31:24;;;;;;;17.77;13.05;;;;;;;;;;5050988;28;20025;-64
2021/12/01 08:33:50;;;;;;;17.35;12.30;;;;;;;;;;5050843;28;20047;-65
2021/12/01 08:36:17;;;;;;;20.30;13.90;;;;;;;;;;5052253;28;20029;-65
2021/12/01 08:38:43;;;;;;;17.70;13.30;;;;;;;;;;5050963;28;20021;-64
2021/12/01 08:41:10;;;;;;;18.33;12.75;;;;;;;;;;5050761;28;20463;-64
2021/12/01 08:43:36;;;;;;;18.80;12.85;;;;;;;;;;5049211;28;20032;-65
2021/12/01 08:46:03;;;;;;;18.80;12.18;;;;;;;;;;5051573;28;20028;-65
2021/12/01 08:48:29;;;;;;;17.55;12.82;;;;;;;;;;5050263;28;20020;-64
2021/12/01 08:50:56;;;;;;;17.13;11.88;;;;;;;;;;5049946;28;20440;-64
2021/12/01 08:53:22;;;;;;;16.42;11.80;;;;;;;;;;5049814;28;20115;-64
2021/12/01 08:55:48;;;;;;;18.30;12.23;;;7.60;99.90;;;;;;5050347;28;20033;-63
2021/12/01 08:58:15;;;;;;;16.92;11.52;;;7.80;99.90;;;;;;5051623;28;20036;-62
2021/12/01 09:00:44;;;;;;;18.67;12.57;;;7.80;99.90;;;;;;5050173;28;20021;-63
2021/12/01 09:03:11;;;;;;;17.02;12.43;;;7.80;99.90;;;;;;5051643;28;20480;-67
2021/12/01 09:05:37;;;;;;;15.52;10.60;;;7.90;99.90;;;;;;5050739;28;20029;-65
2021/12/01 09:08:03;;;;;;;16.20;11.40;;;7.90;99.90;;;;;;5050961;28;20021;-66
2021/12/01 09:10:31;;;;;;;15.68;10.63;;;7.90;99.90;;;;;;5052518;28;20115;-66
2021/12/01 09:12:57;;;;;;;17.83;11.10;;;;;;;;;;5068970;28;20029;-68
2021/12/01 09:15:23;;;;;;;16.42;9.98;;;;;;;;;;5070989;28;20029;-67
2021/12/01 09:17:49;;;;;;;14.50;9.02;;;;;;;;;;5069364;28;20132;-66
2021/12/01 09:20:15;;;;;;;14.00;7.80;;;;;;;;;;5071220;28;20036;-67
2021/12/01 09:22:41;;;;;;;14.60;7.78;;;;;;;;;;5065035;28;20591;-66
2021/12/01 09:25:07;;;;;;;14.57;8.73;;;;;;;;;;5071514;28;20033;-65
2021/12/01 09:27:33;;;;;;;15.02;8.38;;;;;;;;;;5053380;28;20028;-65
2021/12/01 09:29:59;;;;;;;15.02;8.07;;;;;;;;;;5050047;28;20033;-64
2021/12/01 09:32:25;;;;;;;14.13;8.55;;;;;;;;;;5050323;28;20382;-65
2021/12/01 09:34:51;;;;;;;13.60;7.68;;;;;;;;;;5051525;28;20120;-65
2021/12/01 09:37:18;;;;;;;13.63;7.60;;;;;;;;;;5050203;28;20124;-64
2021/12/01 09:39:44;;;;;;;14.88;7.72;;;;;;;;;;5049960;28;20554;-64
2021/12/01 09:42:11;;;;;;;12.98;6.50;;;;;;;;;;5049986;28;20067;-64
2021/12/01 09:44:37;;;;;;;11.50;5.45;;;;;;;;;;5049768;28;20040;-65
2021/12/01 09:47:04;;;;;;;12.68;5.93;;;;;;;;;;5050081;28;20031;-65
2021/12/01 09:49:30;;;;;;;13.25;5.90;;;;;;;;;;5049918;28;20037;-65
2021/12/01 09:51:57;;;;;;;11.85;5.90;;;;;;;;;;5049454;28;20098;-65
2021/12/01 09:54:23;;;;;;;11.98;6.03;;;;;;;;;;5052487;28;20103;-65
2021/12/01 09:56:49;;;;;;;12.80;5.93;;;;;;;;;;5055082;28;20036;-64
2021/12/01 09:59:16;;;;;;;11.32;5.60;;;;;;;;;;5053809;28;20444;-64
2021/12/01 10:01:42;;;;;;;12.15;6.10;;;;;;;;;;5054661;28;20101;-65
2021/12/01 10:04:08;;;;;;;12.43;6.30;;;;;;;;;;5053273;28;20032;-65
2021/12/01 10:06:34;;;;;;;12.88;6.10;;;;;;;;;;5053147;28;20025;-64
2021/12/01 10:09:04;;;;;;;14.10;6.55;;;;;;;;;;5053434;28;20017;-64
2021/12/01 10:11:35;;;;;;;13.38;7.55;;;;;;;;;;5053203;28;20021;-66
2021/12/01 10:14:06;;;;;;;15.23;7.88;;;;;;;;;;5053257;28;20095;-65
2021/12/01 10:16:34;;;;;;;14.40;8.38;;;;;;;;;;5053460;28;20032;-64
2021/12/01 10:19:01;;;;;;;14.65;8.80;;;;;;;;;;5053304;28;20021;-63
2021/12/01 10:21:30;;;;;;;14.80;8.35;;;;;;;;;;5054290;28;20033;-64
2021/12/01 10:24:23;;;;;;;15.73;8.32;;;;;;;;;;5054093;28;20424;-65
2021/12/01 10:26:54;;;;;;;12.13;6.20;;;;;;;;;;5052445;28;20129;-64
2021/12/01 10:29:20;;;;;;;12.00;5.68;;;;;;;;;;5056963;28;20021;-64
2021/12/01 10:31:48;;;;;;;12.65;5.70;;;;;;;;;;5072877;28;20029;-64
2021/12/01 10:34:14;;;;;;;11.37;5.10;;;;;;;;;;5072972;28;20374;-64
2021/12/01 10:36:40;;;;;;;15.02;5.78;;;;;;;;;;5074596;28;20025;-64
2021/12/01 10:39:06;;;;;;;10.75;5.05;;;7.90;99.90;;;;;;5073982;28;20040;-65
2021/12/01 10:41:40;;;;;;;12.65;5.57;;;;;;;;;;5073854;28;20104;-65
2021/12/01 10:44:13;;;;;;;11.65;4.97;;;;;;;;;;5072148;28;20115;-68
2021/12/01 10:46:48;;;;;;;10.82;4.70;;;;;;;;;;5073870;28;20375;-64
2021/12/01 10:49:14;;;;;;;8.05;4.15;;;;;;;;;;5072864;28;20125;-64
2021/12/01 10:51:41;;;;;;;10.93;4.88;;;;;;;;;;5072485;28;20020;-64
2021/12/01 10:54:15;;;;;;;13.35;5.90;;;;;;;;;;5072470;28;20554;-66
2021/12/01 10:56:41;;;;;;;12.68;5.28;;;;;;;;;;5072526;28;20028;-65
2021/12/01 10:59:14;;;;;;;12.23;5.32;;;;;;;;;;5052764;28;20541;-64
2021/12/01 11:01:41;;;;;;;11.73;5.30;;;;;;;;;;5053353;28;20079;-64
2021/12/01 11:04:07;;;;;;;13.43;6.20;;;;;;;;;;5053322;28;20041;-65
2021/12/01 11:06:39;;;;;;;14.23;6.50;;;;;;;;;;5052463;28;20045;-64
2021/12/01 11:09:05;;;;;;;16.08;6.72;;;;;;;;;;5053493;28;20017;-63
2021/12/01 11:11:43;;;;;;;13.68;6.78;;;;;;;;;;5053415;28;20036;-64
2021/12/01 11:14:10;;;;;;;14.20;7.03;;;;;;;;;;5052346;28;20104;-63
2021/12/01 11:16:37;;;;;;;14.57;7.72;;;;;;;;;;5053382;28;20757;-64
2021/12/01 11:19:03;;;;;;;16.80;8.93;;;;;;;;;;5053599;28;20083;-64
2021/12/01 11:21:29;;;;;;;14.98;8.35;;;;;;;;;;5053132;28;20025;-64
2021/12/01 11:23:57;;;;;;;14.82;9.00;;;;;;;;;;5051513;28;20028;-64
2021/12/01 11:26:26;;;;;;;16.10;11.15;;;;;;;;;;5051848;28;20017;-65
2021/12/01 11:28:53;;;;;;;17.65;12.73;;;;;;;;;;5053098;28;20041;-65
2021/12/01 11:31:22;;;;;;;17.45;13.00;;;;;;;;;;5053804;28;20017;-65
2021/12/01 11:33:49;;;;;;;16.92;14.60;;;;;;;;;;5052823;28;20057;-64
2021/12/01 11:36:19;;;;;;;16.52;13.80;;;;;;;;;;5052770;28;20036;-65
2021/12/01 11:38:52;;;;;;;15.25;8.75;;;;;;;;;;5052952;28;20106;-65
2021/12/01 11:41:19;;;;;;;13.38;7.20;;;;;;;;;;5051993;28;20032;-65
2021/12/01 11:43:48;;;;;;;14.45;7.10;;;;;;;;;;5052484;28;20523;-65
2021/12/01 11:46:14;;;;;;;13.07;6.97;;;;;;;;;;5051446;28;20440;-65
2021/12/01 11:48:44;;;;;;;14.35;6.90;;;;;;;;;;5051720;28;20044;-65
2021/12/01 11:51:14;;;;;;;12.50;6.38;;;;;;;;;;5052906;28;20484;-64
2021/12/01 11:53:45;;;;;;;13.75;5.75;;;;;;;;;;5052414;28;20489;-65
2021/12/01 11:56:17;;;;;;;12.40;5.53;;;;;;;;;;5051466;28;20231;-65
2021/12/01 11:58:47;;;;;;;11.43;4.90;;;;;;;;;;5053017;28;20021;-66
2021/12/01 12:01:22;;;;;;;10.07;4.75;;;;;;;;;;5052362;28;20029;-62
2021/12/01 12:03:55;;;;;;;11.77;4.75;;;;;;;;;;5050826;28;20025;-63
2021/12/01 12:06:25;;;;;;;13.88;5.60;;;;;;;;;;5052271;28;20032;-65
2021/12/01 12:08:54;;;;;;;11.13;4.97;;;;;;;;;;5051482;28;20032;-63
2021/12/01 12:11:36;;;;;;;12.52;4.90;;;;;;;;;;5052729;28;20028;-64
2021/12/01 12:14:03;;;;;;;10.95;4.53;;;;;;;;;;5054116;28;20024;-64
2021/12/01 12:16:29;;;;;;;11.47;5.57;;;;;;;;;;5052739;28;20029;-64
2021/12/01 12:18:57;;;;;;;10.38;5.32;;;;;;;;;;5053252;28;20040;-63
2021/12/01 12:21:46;;;;;;;14.07;5.70;;;;;;;;;;5052974;28;20025;-64
2021/12/01 12:24:17;;;;;;;13.32;5.85;;;;;;;;;;5072073;22;20125;-64
2021/12/01 12:26:48;;;;;;;12.25;4.82;;;;;;;;;;5030481;28;20033;-64
2021/12/01 12:29:15;;;;;;;13.32;6.20;;;;;;;;;;5030146;28;20079;-64
2021/12/01 12:31:42;;;;;;;13.20;5.70;;;;;;;;;;5030041;28;20025;-65
2021/12/01 12:34:13;;;;;;;15.73;5.38;;;;;;;;;;5030931;28;20025;-64
2021/12/01 12:36:43;;;;;;;15.43;5.53;;;;;;;;;;5029934;28;20088;-64
2021/12/01 12:39:15;;;;;;;13.23;5.55;;;;;;;;;;5031014;28;20022;-61
2021/12/01 12:41:57;;;;;;;14.68;5.10;;;8.70;99.90;;;;;;5029679;28;20065;-63
2021/12/01 12:44:42;;;;;;;11.85;4.80;;;;;;;;;;5031047;28;20105;-63
2021/12/01 12:47:10;;;;;;;13.77;5.70;;;;;;;;;;5030056;28;20502;-62
2021/12/01 12:49:48;;;;;;;11.38;5.35;;;8.70;99.90;;;;;;5031179;28;20029;-64
2021/12/01 12:52:26;;;;;;;12.57;5.90;;;;;;;;;;5030839;28;20026;-62
2021/12/01 12:54:53;;;;;;;12.32;5.55;;;;;;;;;;5031018;28;20032;-63
2021/12/01 12:57:19;;;;;;;12.20;6.40;;;;;;;;;;5030692;28;20029;-62
2021/12/01 12:59:45;;;;;;;9.75;4.72;;;;;;;;;;5029407;28;20049;-63
2021/12/01 13:02:14;;;;;;;13.40;5.45;;;;;;;;;;5030521;28;20034;-61
2021/12/01 13:04:54;;;;;;;14.18;4.80;;;;;;;;;;5029441;28;20026;-62
2021/12/01 13:07:35;;;;;;;10.68;5.35;;;;;;;;;;5031000;28;20052;-62
2021/12/01 13:10:19;;;;;;;11.15;4.88;;;;;;;;;;5029277;28;20021;-63
2021/12/01 13:13:04;;;;;;;12.75;4.75;;;;;;;;;;5030610;28;20036;-63
2021/12/01 13:15:34;;;;;;;13.23;5.15;;;;;;;;;;5030375;28;20018;-63
2021/12/01 13:18:03;;;;;;;10.18;4.55;;;;;;;;;;5030578;28;20026;-63
2021/12/01 13:20:32;;;;;;;10.85;4.55;;;;;;;;;;5030421;28;20018;-63
2021/12/01 13:23:02;;;;;;;14.35;5.40;;;;;;;;;;5028946;28;20120;-63
2021/12/01 13:25:28;;;;;;;11.57;5.10;;;;;;;;;;5030264;28;20147;-60
2021/12/01 13:27:54;;;;;;;12.90;5.00;;;;;;;;;;5030799;28;20018;-63
2021/12/01 13:30:20;;;;;;;15.45;5.30;;;;;;;;;;5033240;28;20151;-63
2021/12/01 13:32:46;;;;;;;10.23;5.10;;;;;;;;;;5033579;28;20112;-64
2021/12/01 13:35:11;;;;;;;13.05;5.40;;;8.10;99.90;;;;;;5034066;28;20100;-63
2021/12/01 13:37:37;;;;;;;13.00;5.53;;;8.30;99.90;;;;;;5034648;28;20033;-63
2021/12/01 13:40:11;;;;;;;14.45;4.80;;;;;;;;;;5034156;28;20112;-64
2021/12/01 13:42:37;;;;;;;16.67;6.13;;;;;;;;;;5033976;28;20473;-63
2021/12/01 13:45:03;;;;;;;12.38;4.60;;;;;;;;;;5034135;28;20115;-63
2021/12/01 13:47:32;;;;;;;13.10;5.65;;;;;;;;;;5033627;28;20397;-64
2021/12/01 13:50:00;;;;;;;13.45;5.38;;;;;;;;;;5033706;28;20079;-62
2021/12/01 13:52:35;;;;;;;11.90;4.93;;;;;;;;;;5032393;28;20468;-61
2021/12/01 13:55:19;;;;;;;12.63;4.97;;;;;;;;;;5032637;28;20486;-63
2021/12/01 13:57:49;;;;;;;14.52;5.22;;;;;;;;;;5033492;28;20122;-63
2021/12/01 14:00:17;;;;;;;13.00;5.28;;;;;;;;;;5033490;28;20029;-63
2021/12/01 14:02:43;;;;;;;14.73;5.22;;;;;;;;;;5033463;28;20101;-64
2021/12/01 14:05:10;;;;;;;12.65;5.05;;;;;;;;;;5032147;28;20481;-65
2021/12/01 14:07:43;;;;;;;13.85;4.90;;;;;;;;;;5033481;28;20032;-63
2021/12/01 14:10:16;;;;;;;14.02;5.28;;;;;;;;;;5032903;28;20018;-64
2021/12/01 14:12:46;;;;;;;14.32;5.00;;;;;;;;;;5033204;28;20435;-64
2021/12/01 14:15:12;;;;;;;13.13;5.20;;;;;;;;;;5032686;28;20504;-64
2021/12/01 14:17:38;;;;;;;14.10;4.65;;;;;;;;;;5033287;28;20021;-64
2021/12/01 14:20:05;;;;;;;11.18;4.45;;;;;;;;;;5032903;28;20174;-63
2021/12/01 14:22:32;;;;;;;12.63;4.93;;;;;;;;;;5033346;28;20374;-64
2021/12/01 14:25:01;;;;;;;10.13;4.32;;;;;;;;;;5033042;28;20056;-63